sensor_id;sensor_type;location;lat;lon;timestamp;pressure;altitude;pressure_sealevel;temperature;humidity
9423;BME280;4750;49.506;10.400;2022-10-16T00:02:14;97871.16;;;14.61;90.09
9423;BME280;4750;49.506;10.400;2022-10-16T00:04:58;97884.44;;;14.68;90.46
9423;BME280;4750;49.506;10.400;2022-10-16T00:07:42;97879.88;;;14.55;90.65
9423;BME280;4750;49.506;10.400;2022-10-16T00:10:26;97883.75;;;14.60;90.91
9423;BME280;4750;49.506;10.400;2022-10-16T00:13:10;97887.13;;;14.49;90.94
9423;BME280;4750;49.506;10.400;2022-10-16T00:15:56;97894.91;;;14.58;91.21
9423;BME280;4750;49.506;10.400;2022-10-16T00:18:40;97865.88;;;14.48;91.69
9423;BME280;4750;49.506;10.400;2022-10-16T00:21:27;97853.75;;;14.37;91.49
9423;BME280;4750;49.506;10.400;2022-10-16T00:24:11;97869.38;;;14.38;91.95
9423;BME280;4750;49.506;10.400;2022-10-16T00:26:56;97872.03;;;14.36;92.27
9423;BME280;4750;49.506;10.400;2022-10-16T00:29:39;97846.03;;;14.20;92.30
9423;BME280;4750;49.506;10.400;2022-10-16T00:32:24;97868.69;;;14.30;92.35
9423;BME280;4750;49.506;10.400;2022-10-16T00:35:08;97880.75;;;14.31;92.34
9423;BME280;4750;49.506;10.400;2022-10-16T00:37:52;97802.59;;;13.71;92.57
9423;BME280;4750;49.506;10.400;2022-10-16T00:40:36;97821.28;;;13.84;92.87
9423;BME280;4750;49.506;10.400;2022-10-16T00:43:35;97870.56;;;14.18;93.07
9423;BME280;4750;49.506;10.400;2022-10-16T00:46:22;97883.00;;;14.32;93.21
9423;BME280;4750;49.506;10.400;2022-10-16T00:49:10;97889.47;;;14.25;93.36
9423;BME280;4750;49.506;10.400;2022-10-16T00:51:55;97882.00;;;14.20;93.39
9423;BME280;4750;49.506;10.400;2022-10-16T00:54:39;97872.06;;;14.01;93.35
9423;BME280;4750;49.506;10.400;2022-10-16T00:57:23;97885.06;;;14.14;93.29
9423;BME280;4750;49.506;10.400;2022-10-16T01:00:10;97892.47;;;14.09;93.66
9423;BME280;4750;49.506;10.400;2022-10-16T01:02:56;97886.56;;;13.98;93.79
9423;BME280;4750;49.506;10.400;2022-10-16T01:05:48;97872.88;;;13.94;93.86
9423;BME280;4750;49.506;10.400;2022-10-16T01:12:09;97900.03;;;14.07;94.22
9423;BME280;4750;49.506;10.400;2022-10-16T01:14:58;97897.28;;;13.99;93.99
9423;BME280;4750;49.506;10.400;2022-10-16T01:21:03;97906.56;;;13.92;94.10
9423;BME280;4750;49.506;10.400;2022-10-16T01:23:56;97895.19;;;13.82;94.31
9423;BME280;4750;49.506;10.400;2022-10-16T01:30:10;97920.75;;;14.02;94.77
9423;BME280;4750;49.506;10.400;2022-10-16T01:33:02;97920.50;;;14.07;94.96
9423;BME280;4750;49.506;10.400;2022-10-16T01:35:52;97916.22;;;14.06;94.96
9423;BME280;4750;49.506;10.400;2022-10-16T01:38:39;97917.88;;;14.09;95.02
9423;BME280;4750;49.506;10.400;2022-10-16T01:41:33;97897.28;;;13.99;95.32
9423;BME280;4750;49.506;10.400;2022-10-16T01:44:21;97919.03;;;14.06;95.34
9423;BME280;4750;49.506;10.400;2022-10-16T01:47:09;97895.50;;;13.86;95.16
9423;BME280;4750;49.506;10.400;2022-10-16T01:49:55;97900.50;;;13.95;95.44
9423;BME280;4750;49.506;10.400;2022-10-16T01:52:44;97920.78;;;14.19;95.36
9423;BME280;4750;49.506;10.400;2022-10-16T01:55:32;97921.63;;;14.12;95.25
9423;BME280;4750;49.506;10.400;2022-10-16T01:58:18;97919.03;;;14.06;95.06
9423;BME280;4750;49.506;10.400;2022-10-16T02:01:04;97912.38;;;14.11;95.37
9423;BME280;4750;49.506;10.400;2022-10-16T02:03:51;97908.63;;;14.09;95.38
9423;BME280;4750;49.506;10.400;2022-10-16T02:06:37;97909.25;;;14.25;95.24
9423;BME280;4750;49.506;10.400;2022-10-16T02:09:21;97916.38;;;14.43;95.12
9423;BME280;4750;49.506;10.400;2022-10-16T02:12:13;97906.84;;;14.39;95.24
9423;BME280;4750;49.506;10.400;2022-10-16T02:14:59;97910.13;;;14.45;94.81
9423;BME280;4750;49.506;10.400;2022-10-16T02:17:44;97907.72;;;14.41;94.98
9423;BME280;4750;49.506;10.400;2022-10-16T02:20:32;97885.31;;;14.26;94.79
9423;BME280;4750;49.506;10.400;2022-10-16T02:23:25;97917.88;;;14.44;94.75
9423;BME280;4750;49.506;10.400;2022-10-16T02:26:15;97883.66;;;14.23;94.71
9423;BME280;4750;49.506;10.400;2022-10-16T02:29:07;97899.59;;;14.28;94.73
9423;BME280;4750;49.506;10.400;2022-10-16T02:31:57;97918.44;;;14.43;94.98
9423;BME280;4750;49.506;10.400;2022-10-16T02:34:43;97891.72;;;14.26;95.03
9423;BME280;4750;49.506;10.400;2022-10-16T02:37:28;97877.69;;;14.01;94.86
9423;BME280;4750;49.506;10.400;2022-10-16T02:40:13;97930.31;;;14.41;94.91
9423;BME280;4750;49.506;10.400;2022-10-16T02:42:58;97912.72;;;14.33;95.07
9423;BME280;4750;49.506;10.400;2022-10-16T02:45:42;97917.63;;;14.33;95.12
9423;BME280;4750;49.506;10.400;2022-10-16T02:48:26;97926.09;;;14.33;95.12
9423;BME280;4750;49.506;10.400;2022-10-16T02:51:10;97894.88;;;14.13;94.94
9423;BME280;4750;49.506;10.400;2022-10-16T02:53:54;97919.03;;;14.24;94.92
9423;BME280;4750;49.506;10.400;2022-10-16T02:56:38;97913.25;;;14.22;94.78
9423;BME280;4750;49.506;10.400;2022-10-16T02:59:22;97917.78;;;14.17;94.73
9423;BME280;4750;49.506;10.400;2022-10-16T03:02:07;97939.81;;;14.36;95.07
9423;BME280;4750;49.506;10.400;2022-10-16T03:04:50;97929.59;;;14.23;95.03
9423;BME280;4750;49.506;10.400;2022-10-16T03:07:34;97931.66;;;14.23;95.30
9423;BME280;4750;49.506;10.400;2022-10-16T03:10:18;97920.03;;;14.19;95.15
9423;BME280;4750;49.506;10.400;2022-10-16T03:13:03;97921.44;;;14.27;95.42
9423;BME280;4750;49.506;10.400;2022-10-16T03:15:47;97936.78;;;14.34;95.42
9423;BME280;4750;49.506;10.400;2022-10-16T03:18:31;97945.44;;;14.36;95.41
9423;BME280;4750;49.506;10.400;2022-10-16T03:21:15;97943.59;;;14.31;95.33
9423;BME280;4750;49.506;10.400;2022-10-16T03:23:59;97896.78;;;14.10;95.35
9423;BME280;4750;49.506;10.400;2022-10-16T03:26:44;97909.84;;;14.23;95.39
9423;BME280;4750;49.506;10.400;2022-10-16T03:29:27;97918.53;;;14.18;95.52
9423;BME280;4750;49.506;10.400;2022-10-16T03:32:13;97912.41;;;14.29;95.48
9423;BME280;4750;49.506;10.400;2022-10-16T03:34:57;97914.88;;;14.25;95.38
9423;BME280;4750;49.506;10.400;2022-10-16T03:37:41;97940.13;;;14.40;95.45
9423;BME280;4750;49.506;10.400;2022-10-16T03:40:25;97946.13;;;14.44;95.65
9423;BME280;4750;49.506;10.400;2022-10-16T03:43:09;97932.50;;;14.33;95.25
9423;BME280;4750;49.506;10.400;2022-10-16T03:45:53;97924.84;;;14.26;95.19
9423;BME280;4750;49.506;10.400;2022-10-16T03:48:37;97944.94;;;14.30;95.30
9423;BME280;4750;49.506;10.400;2022-10-16T03:51:21;97931.41;;;14.28;95.38
9423;BME280;4750;49.506;10.400;2022-10-16T03:54:05;97949.25;;;14.31;95.47
9423;BME280;4750;49.506;10.400;2022-10-16T03:56:49;97953.72;;;14.34;95.30
9423;BME280;4750;49.506;10.400;2022-10-16T03:59:33;97948.66;;;14.33;95.32
9423;BME280;4750;49.506;10.400;2022-10-16T04:02:17;97929.84;;;14.18;95.44
9423;BME280;4750;49.506;10.400;2022-10-16T04:05:03;97931.31;;;14.19;95.35
9423;BME280;4750;49.506;10.400;2022-10-16T04:07:46;97921.63;;;14.12;95.54
9423;BME280;4750;49.506;10.400;2022-10-16T04:10:31;97922.84;;;14.19;95.51
9423;BME280;4750;49.506;10.400;2022-10-16T04:13:15;97939.38;;;14.22;95.43
9423;BME280;4750;49.506;10.400;2022-10-16T04:15:58;97965.38;;;14.21;95.26
9423;BME280;4750;49.506;10.400;2022-10-16T04:18:43;97943.69;;;14.23;95.45
9423;BME280;4750;49.506;10.400;2022-10-16T04:21:27;97932.81;;;14.20;95.61
9423;BME280;4750;49.506;10.400;2022-10-16T04:24:11;97956.56;;;14.17;95.61
9423;BME280;4750;49.506;10.400;2022-10-16T04:26:55;97932.31;;;14.14;95.60
9423;BME280;4750;49.506;10.400;2022-10-16T04:29:40;97962.06;;;14.32;95.64
9423;BME280;4750;49.506;10.400;2022-10-16T04:32:24;97940.28;;;14.25;95.60
9423;BME280;4750;49.506;10.400;2022-10-16T04:35:08;97929.00;;;14.25;95.31
9423;BME280;4750;49.506;10.400;2022-10-16T04:37:52;97950.50;;;14.20;94.93
9423;BME280;4750;49.506;10.400;2022-10-16T04:40:36;97947.41;;;14.26;95.01
9423;BME280;4750;49.506;10.400;2022-10-16T04:43:20;97964.94;;;14.24;95.02
9423;BME280;4750;49.506;10.400;2022-10-16T04:46:05;97947.41;;;14.08;94.96
9423;BME280;4750;49.506;10.400;2022-10-16T04:48:49;97950.72;;;14.15;95.19
9423;BME280;4750;49.506;10.400;2022-10-16T04:51:32;97964.09;;;14.14;95.07
9423;BME280;4750;49.506;10.400;2022-10-16T04:54:16;97953.50;;;14.05;94.77
9423;BME280;4750;49.506;10.400;2022-10-16T04:57:00;97935.09;;;13.78;94.65
9423;BME280;4750;49.506;10.400;2022-10-16T04:59:44;97958.34;;;13.87;94.80
9423;BME280;4750;49.506;10.400;2022-10-16T05:02:29;97968.63;;;13.92;95.13
9423;BME280;4750;49.506;10.400;2022-10-16T05:05:13;97986.94;;;14.08;95.18
9423;BME280;4750;49.506;10.400;2022-10-16T05:07:57;97984.19;;;14.01;95.18
9423;BME280;4750;49.506;10.400;2022-10-16T05:10:43;97992.47;;;13.99;95.23
9423;BME280;4750;49.506;10.400;2022-10-16T05:13:27;97974.59;;;13.78;95.55
9423;BME280;4750;49.506;10.400;2022-10-16T05:16:11;97984.91;;;13.84;95.77
9423;BME280;4750;49.506;10.400;2022-10-16T05:18:55;97988.69;;;13.78;95.75
9423;BME280;4750;49.506;10.400;2022-10-16T05:21:39;97984.56;;;13.80;95.90
9423;BME280;4750;49.506;10.400;2022-10-16T05:24:23;97991.84;;;13.83;95.93
9423;BME280;4750;49.506;10.400;2022-10-16T05:27:07;97999.34;;;13.88;96.13
9423;BME280;4750;49.506;10.400;2022-10-16T05:29:51;97997.72;;;14.02;96.18
9423;BME280;4750;49.506;10.400;2022-10-16T05:32:35;97991.03;;;13.90;95.77
9423;BME280;4750;49.506;10.400;2022-10-16T05:35:19;98002.34;;;13.90;95.89
9423;BME280;4750;49.506;10.400;2022-10-16T05:38:03;97978.22;;;13.71;95.98
9423;BME280;4750;49.506;10.400;2022-10-16T05:40:51;98005.16;;;13.90;96.14
9423;BME280;4750;49.506;10.400;2022-10-16T05:43:38;97993.06;;;13.72;96.05
9423;BME280;4750;49.506;10.400;2022-10-16T05:46:22;97974.78;;;13.55;96.07
9423;BME280;4750;49.506;10.400;2022-10-16T05:49:06;97998.78;;;13.64;95.87
9423;BME280;4750;49.506;10.400;2022-10-16T05:51:50;97991.47;;;13.61;95.91
9423;BME280;4750;49.506;10.400;2022-10-16T05:54:34;98033.13;;;13.95;95.98
9423;BME280;4750;49.506;10.400;2022-10-16T05:57:18;98029.38;;;13.93;95.69
9423;BME280;4750;49.506;10.400;2022-10-16T06:00:03;97997.97;;;13.71;95.84
9423;BME280;4750;49.506;10.400;2022-10-16T06:02:56;98031.34;;;13.83;96.05
9423;BME280;4750;49.506;10.400;2022-10-16T06:05:41;98022.03;;;13.72;95.96
9423;BME280;4750;49.506;10.400;2022-10-16T06:08:26;98029.50;;;13.77;96.31
9423;BME280;4750;49.506;10.400;2022-10-16T06:11:16;98029.13;;;13.81;96.26
9423;BME280;4750;49.506;10.400;2022-10-16T06:14:01;98029.13;;;13.81;96.22
9423;BME280;4750;49.506;10.400;2022-10-16T06:16:50;98016.41;;;13.72;96.38
9423;BME280;4750;49.506;10.400;2022-10-16T06:19:34;98037.03;;;14.00;96.26
9423;BME280;4750;49.506;10.400;2022-10-16T06:22:18;98018.34;;;13.87;96.26
9423;BME280;4750;49.506;10.400;2022-10-16T06:25:02;98014.25;;;13.81;96.20
9423;BME280;4750;49.506;10.400;2022-10-16T06:27:46;98014.25;;;13.81;96.33
9423;BME280;4750;49.506;10.400;2022-10-16T06:30:30;98056.97;;;14.02;96.38
9423;BME280;4750;49.506;10.400;2022-10-16T06:33:14;98045.13;;;14.04;96.26
9423;BME280;4750;49.506;10.400;2022-10-16T06:36:02;98064.16;;;14.21;96.41
9423;BME280;4750;49.506;10.400;2022-10-16T06:38:47;98028.91;;;14.04;96.33
9423;BME280;4750;49.506;10.400;2022-10-16T06:41:31;98068.31;;;14.20;96.26
9423;BME280;4750;49.506;10.400;2022-10-16T06:44:20;98059.50;;;14.16;96.21
9423;BME280;4750;49.506;10.400;2022-10-16T06:47:04;98054.94;;;14.20;96.07
9423;BME280;4750;49.506;10.400;2022-10-16T06:49:48;98053.56;;;14.29;96.50
9423;BME280;4750;49.506;10.400;2022-10-16T06:52:33;98056.53;;;14.31;96.30
9423;BME280;4750;49.506;10.400;2022-10-16T06:55:17;98040.03;;;14.27;96.25
9423;BME280;4750;49.506;10.400;2022-10-16T06:58:01;98078.31;;;14.56;96.23
9423;BME280;4750;49.506;10.400;2022-10-16T07:00:45;98072.13;;;14.57;96.15
9423;BME280;4750;49.506;10.400;2022-10-16T07:03:29;98077.91;;;14.85;96.03
9423;BME280;4750;49.506;10.400;2022-10-16T07:06:16;98064.84;;;14.72;95.47
9423;BME280;4750;49.506;10.400;2022-10-16T07:09:04;98103.91;;;15.01;94.98
9423;BME280;4750;49.506;10.400;2022-10-16T07:11:48;98087.69;;;14.84;94.18
9423;BME280;4750;49.506;10.400;2022-10-16T07:14:33;98090.25;;;14.89;94.13
9423;BME280;4750;49.506;10.400;2022-10-16T07:17:17;98084.47;;;14.87;93.95
9423;BME280;4750;49.506;10.400;2022-10-16T07:20:02;98092.34;;;15.06;94.10
9423;BME280;4750;49.506;10.400;2022-10-16T07:22:46;98084.19;;;15.10;93.95
9423;BME280;4750;49.506;10.400;2022-10-16T07:25:30;98080.75;;;15.29;94.14
9423;BME280;4750;49.506;10.400;2022-10-16T07:28:14;98106.97;;;15.57;94.10
9423;BME280;4750;49.506;10.400;2022-10-16T07:31:06;98095.41;;;15.63;93.88
9423;BME280;4750;49.506;10.400;2022-10-16T07:33:51;98095.78;;;15.77;93.29
9423;BME280;4750;49.506;10.400;2022-10-16T07:36:35;98100.16;;;15.88;92.83
9423;BME280;4750;49.506;10.400;2022-10-16T07:39:19;98099.00;;;15.91;92.33
9423;BME280;4750;49.506;10.400;2022-10-16T07:42:03;98118.97;;;15.93;91.68
9423;BME280;4750;49.506;10.400;2022-10-16T07:44:47;98120.47;;;15.94;91.03
9423;BME280;4750;49.506;10.400;2022-10-16T07:47:31;98120.63;;;15.96;90.57
9423;BME280;4750;49.506;10.400;2022-10-16T07:50:15;98120.63;;;15.96;90.04
9423;BME280;4750;49.506;10.400;2022-10-16T07:52:59;98128.56;;;16.07;89.72
9423;BME280;4750;49.506;10.400;2022-10-16T07:55:44;98103.09;;;16.07;89.46
9423;BME280;4750;49.506;10.400;2022-10-16T07:58:28;98122.69;;;16.32;88.90
9423;BME280;4750;49.506;10.400;2022-10-16T08:01:14;98118.53;;;16.33;88.11
9423;BME280;4750;49.506;10.400;2022-10-16T08:03:58;98115.44;;;16.39;88.09
9423;BME280;4750;49.506;10.400;2022-10-16T08:06:42;98120.53;;;16.50;87.43
9423;BME280;4750;49.506;10.400;2022-10-16T08:09:25;98147.69;;;16.63;86.63
9423;BME280;4750;49.506;10.400;2022-10-16T08:12:09;98127.91;;;16.83;87.05
9423;BME280;4750;49.506;10.400;2022-10-16T08:14:54;98151.69;;;17.17;86.36
9423;BME280;4750;49.506;10.400;2022-10-16T08:17:38;98152.72;;;17.31;85.44
9423;BME280;4750;49.506;10.400;2022-10-16T08:20:22;98139.16;;;17.30;84.63
9423;BME280;4750;49.506;10.400;2022-10-16T08:23:07;98163.91;;;17.49;84.17
9423;BME280;4750;49.506;10.400;2022-10-16T08:25:54;98159.56;;;17.48;83.66
9423;BME280;4750;49.506;10.400;2022-10-16T08:28:38;98159.13;;;17.61;83.31
9423;BME280;4750;49.506;10.400;2022-10-16T08:31:23;98161.47;;;17.84;82.67
9423;BME280;4750;49.506;10.400;2022-10-16T08:34:07;98134.28;;;17.81;82.19
9423;BME280;4750;49.506;10.400;2022-10-16T08:36:53;98136.81;;;17.77;81.87
9423;BME280;4750;49.506;10.400;2022-10-16T08:39:37;98142.19;;;18.02;81.77
9423;BME280;4750;49.506;10.400;2022-10-16T08:42:32;98160.09;;;18.15;80.43
9423;BME280;4750;49.506;10.400;2022-10-16T08:45:31;98170.09;;;18.79;80.02
9423;BME280;4750;49.506;10.400;2022-10-16T08:48:23;98178.06;;;19.02;78.06
9423;BME280;4750;49.506;10.400;2022-10-16T08:51:14;98170.69;;;18.87;76.31
9423;BME280;4750;49.506;10.400;2022-10-16T08:54:09;98158.97;;;18.92;75.68
9423;BME280;4750;49.506;10.400;2022-10-16T08:57:11;98156.53;;;18.99;75.17
9423;BME280;4750;49.506;10.400;2022-10-16T09:00:00;98169.13;;;18.96;75.13
9423;BME280;4750;49.506;10.400;2022-10-16T09:03:07;98182.88;;;18.99;75.37
9423;BME280;4750;49.506;10.400;2022-10-16T09:17:46;98186.53;;;18.58;76.86
9423;BME280;4750;49.506;10.400;2022-10-16T09:20:49;98186.19;;;18.64;77.07
9423;BME280;4750;49.506;10.400;2022-10-16T09:23:35;98157.63;;;18.62;76.94
9423;BME280;4750;49.506;10.400;2022-10-16T09:26:20;98160.94;;;18.58;76.39
9423;BME280;4750;49.506;10.400;2022-10-16T09:29:05;98188.44;;;18.66;76.32
9423;BME280;4750;49.506;10.400;2022-10-16T09:31:49;98181.53;;;18.69;76.25
9423;BME280;4750;49.506;10.400;2022-10-16T09:34:36;98163.13;;;18.70;76.32
9423;BME280;4750;49.506;10.400;2022-10-16T09:37:24;98179.56;;;19.03;76.15
9423;BME280;4750;49.506;10.400;2022-10-16T09:40:28;98187.19;;;19.22;75.41
9423;BME280;4750;49.506;10.400;2022-10-16T09:46:26;98188.44;;;19.74;75.00
9423;BME280;4750;49.506;10.400;2022-10-16T09:49:24;98209.91;;;19.87;73.98
9423;BME280;4750;49.506;10.400;2022-10-16T09:52:13;98196.81;;;19.93;73.05
9423;BME280;4750;49.506;10.400;2022-10-16T09:55:00;98209.47;;;20.02;72.49
9423;BME280;4750;49.506;10.400;2022-10-16T09:57:52;98182.50;;;19.48;71.44
9423;BME280;4750;49.506;10.400;2022-10-16T10:00:36;98202.97;;;19.56;71.77
9423;BME280;4750;49.506;10.400;2022-10-16T10:03:40;98212.22;;;19.45;71.83
9423;BME280;4750;49.506;10.400;2022-10-16T10:06:35;98212.28;;;19.35;71.80
9423;BME280;4750;49.506;10.400;2022-10-16T10:09:38;98208.66;;;19.35;72.23
9423;BME280;4750;49.506;10.400;2022-10-16T10:12:30;98226.28;;;19.43;72.68
9423;BME280;4750;49.506;10.400;2022-10-16T10:15:25;98227.25;;;19.36;73.33
9423;BME280;4750;49.506;10.400;2022-10-16T10:18:17;98218.50;;;19.43;73.12
9423;BME280;4750;49.506;10.400;2022-10-16T10:21:02;98222.91;;;19.56;73.51
9423;BME280;4750;49.506;10.400;2022-10-16T10:23:55;98204.44;;;19.57;72.83
9423;BME280;4750;49.506;10.400;2022-10-16T10:27:10;98223.59;;;19.78;72.59
9423;BME280;4750;49.506;10.400;2022-10-16T10:30:02;98227.63;;;19.85;72.95
9423;BME280;4750;49.506;10.400;2022-10-16T10:39:32;98218.47;;;19.87;70.83
9423;BME280;4750;49.506;10.400;2022-10-16T10:42:30;98238.66;;;19.91;70.94
9423;BME280;4750;49.506;10.400;2022-10-16T10:48:27;98217.38;;;19.92;71.78
9423;BME280;4750;49.506;10.400;2022-10-16T10:54:32;98226.03;;;19.94;71.83
9423;BME280;4750;49.506;10.400;2022-10-16T11:00:55;98222.63;;;19.52;72.85
9423;BME280;4750;49.506;10.400;2022-10-16T11:07:02;98226.88;;;19.63;73.33
9423;BME280;4750;49.506;10.400;2022-10-16T11:09:51;98177.25;;;19.11;73.64
9423;BME280;4750;49.506;10.400;2022-10-16T11:12:40;98226.94;;;19.53;74.04
9423;BME280;4750;49.506;10.400;2022-10-16T11:15:32;98218.91;;;19.50;73.47
9423;BME280;4750;49.506;10.400;2022-10-16T11:18:24;98238.41;;;19.87;74.30
9423;BME280;4750;49.506;10.400;2022-10-16T11:21:12;98236.72;;;20.86;73.91
9423;BME280;4750;49.506;10.400;2022-10-16T11:24:06;98237.56;;;21.74;71.34
9423;BME280;4750;49.506;10.400;2022-10-16T11:27:00;98225.31;;;22.11;67.85
9423;BME280;4750;49.506;10.400;2022-10-16T11:29:57;98201.25;;;22.02;66.12
9423;BME280;4750;49.506;10.400;2022-10-16T11:35:59;98240.97;;;22.10;63.62
9423;BME280;4750;49.506;10.400;2022-10-16T11:42:08;98227.91;;;22.32;65.34
9423;BME280;4750;49.506;10.400;2022-10-16T11:45:03;98242.75;;;22.82;64.25
9423;BME280;4750;49.506;10.400;2022-10-16T11:48:04;98253.88;;;22.90;63.06
9423;BME280;4750;49.506;10.400;2022-10-16T11:50:53;98242.81;;;22.57;60.62
9423;BME280;4750;49.506;10.400;2022-10-16T11:54:01;98215.13;;;22.33;60.34
9423;BME280;4750;49.506;10.400;2022-10-16T11:56:52;98212.94;;;22.46;60.30
9423;BME280;4750;49.506;10.400;2022-10-16T12:00:01;98230.41;;;22.52;59.94
9423;BME280;4750;49.506;10.400;2022-10-16T12:03:19;98167.06;;;21.90;60.02
9423;BME280;4750;49.506;10.400;2022-10-16T12:08:59;98203.94;;;22.12;60.85
9423;BME280;4750;49.506;10.400;2022-10-16T12:11:44;98215.69;;;22.18;61.77
9423;BME280;4750;49.506;10.400;2022-10-16T12:14:37;98220.66;;;22.43;60.83
9423;BME280;4750;49.506;10.400;2022-10-16T12:17:26;98222.63;;;22.80;60.85
9423;BME280;4750;49.506;10.400;2022-10-16T12:22:57;98211.44;;;22.45;60.99
9423;BME280;4750;49.506;10.400;2022-10-16T12:25:42;98201.06;;;22.38;60.68
9423;BME280;4750;49.506;10.400;2022-10-16T12:28:33;98212.13;;;22.85;60.42
9423;BME280;4750;49.506;10.400;2022-10-16T12:31:17;98205.03;;;22.86;60.25
9423;BME280;4750;49.506;10.400;2022-10-16T12:34:02;98220.00;;;23.12;59.96
9423;BME280;4750;49.506;10.400;2022-10-16T12:36:47;98208.81;;;22.91;59.50
9423;BME280;4750;49.506;10.400;2022-10-16T12:39:31;98198.97;;;22.66;59.33
9423;BME280;4750;49.506;10.400;2022-10-16T12:42:23;98214.00;;;22.66;59.39
9423;BME280;4750;49.506;10.400;2022-10-16T12:45:33;98198.75;;;22.62;59.85
9423;BME280;4750;49.506;10.400;2022-10-16T12:48:20;98171.78;;;22.25;59.96
9423;BME280;4750;49.506;10.400;2022-10-16T12:54:20;98205.44;;;22.66;58.53
9423;BME280;4750;49.506;10.400;2022-10-16T13:03:30;98230.47;;;22.94;57.61
9423;BME280;4750;49.506;10.400;2022-10-16T13:06:45;98235.13;;;23.15;57.74
9423;BME280;4750;49.506;10.400;2022-10-16T13:10:12;98221.34;;;22.97;56.55
9423;BME280;4750;49.506;10.400;2022-10-16T13:13:12;98237.06;;;23.24;56.77
9423;BME280;4750;49.506;10.400;2022-10-16T13:22:06;98219.03;;;22.94;58.26
9423;BME280;4750;49.506;10.400;2022-10-16T13:27:56;98219.34;;;22.86;57.79
9423;BME280;4750;49.506;10.400;2022-10-16T13:30:50;98217.94;;;22.73;57.70
9423;BME280;4750;49.506;10.400;2022-10-16T13:33:37;98201.72;;;22.50;57.92
9423;BME280;4750;49.506;10.400;2022-10-16T13:39:29;98233.97;;;23.20;57.88
9423;BME280;4750;49.506;10.400;2022-10-16T13:42:24;98228.56;;;23.26;57.78
9423;BME280;4750;49.506;10.400;2022-10-16T13:45:18;98240.44;;;23.20;56.71
9423;BME280;4750;49.506;10.400;2022-10-16T13:48:09;98224.50;;;23.03;56.45
9423;BME280;4750;49.506;10.400;2022-10-16T13:51:16;98228.31;;;23.36;56.31
9423;BME280;4750;49.506;10.400;2022-10-16T13:54:00;98189.22;;;22.99;55.61
9423;BME280;4750;49.506;10.400;2022-10-16T13:56:44;98242.53;;;22.92;56.26
9423;BME280;4750;49.506;10.400;2022-10-16T13:59:35;98222.66;;;22.41;58.16
9423;BME280;4750;49.506;10.400;2022-10-16T14:02:32;98233.91;;;22.11;58.91
9423;BME280;4750;49.506;10.400;2022-10-16T14:05:18;98213.19;;;21.73;59.94
9423;BME280;4750;49.506;10.400;2022-10-16T14:08:02;98244.81;;;21.89;60.84
9423;BME280;4750;49.506;10.400;2022-10-16T14:10:51;98213.09;;;21.71;61.34
9423;BME280;4750;49.506;10.400;2022-10-16T14:13:38;98246.06;;;21.86;61.74
9423;BME280;4750;49.506;10.400;2022-10-16T14:16:27;98206.69;;;21.58;62.01
9423;BME280;4750;49.506;10.400;2022-10-16T14:19:27;98238.69;;;21.69;62.41
9423;BME280;4750;49.506;10.400;2022-10-16T14:28:16;98256.47;;;21.43;63.79
9423;BME280;4750;49.506;10.400;2022-10-16T14:31:02;98264.53;;;21.47;63.67
9423;BME280;4750;49.506;10.400;2022-10-16T14:34:00;98257.25;;;21.44;64.66
9423;BME280;4750;49.506;10.400;2022-10-16T14:36:45;98260.72;;;21.42;65.55
9423;BME280;4750;49.506;10.400;2022-10-16T14:39:29;98238.78;;;21.21;66.73
9423;BME280;4750;49.506;10.400;2022-10-16T14:42:18;98227.16;;;21.05;67.82
9423;BME280;4750;49.506;10.400;2022-10-16T14:45:08;98233.72;;;20.96;68.59
9423;BME280;4750;49.506;10.400;2022-10-16T14:47:57;98246.88;;;21.01;69.04
9423;BME280;4750;49.506;10.400;2022-10-16T14:50:41;98247.25;;;20.95;69.43
9423;BME280;4750;49.506;10.400;2022-10-16T14:53:25;98210.41;;;20.52;70.01
9423;BME280;4750;49.506;10.400;2022-10-16T14:56:17;98265.88;;;20.85;70.60
9423;BME280;4750;49.506;10.400;2022-10-16T14:59:02;98256.56;;;20.84;70.94
9423;BME280;4750;49.506;10.400;2022-10-16T15:01:47;98274.03;;;21.02;71.16
9423;BME280;4750;49.506;10.400;2022-10-16T15:04:31;98243.06;;;20.73;71.35
9423;BME280;4750;49.506;10.400;2022-10-16T15:07:15;98245.91;;;20.73;71.43
9423;BME280;4750;49.506;10.400;2022-10-16T15:09:59;98253.44;;;20.68;71.93
9423;BME280;4750;49.506;10.400;2022-10-16T15:12:43;98256.78;;;20.64;72.41
9423;BME280;4750;49.506;10.400;2022-10-16T15:15:38;98250.69;;;20.46;72.71
9423;BME280;4750;49.506;10.400;2022-10-16T15:18:25;98244.34;;;20.24;73.42
9423;BME280;4750;49.506;10.400;2022-10-16T15:21:38;98282.53;;;20.43;74.37
9423;BME280;4750;49.506;10.400;2022-10-16T15:24:21;98260.22;;;19.94;75.34
9423;BME280;4750;49.506;10.400;2022-10-16T15:27:06;98258.88;;;19.95;76.29
9423;BME280;4750;49.506;10.400;2022-10-16T15:29:50;98255.47;;;19.87;77.03
9423;BME280;4750;49.506;10.400;2022-10-16T15:32:34;98212.59;;;19.51;76.95
9423;BME280;4750;49.506;10.400;2022-10-16T15:35:18;98272.91;;;19.59;76.86
9423;BME280;4750;49.506;10.400;2022-10-16T15:38:02;98284.66;;;19.54;76.59
9423;BME280;4750;49.506;10.400;2022-10-16T15:40:47;98297.88;;;19.71;76.89
9423;BME280;4750;49.506;10.400;2022-10-16T15:43:31;98284.56;;;19.42;76.46
9423;BME280;4750;49.506;10.400;2022-10-16T15:46:19;98298.94;;;19.44;76.98
9423;BME280;4750;49.506;10.400;2022-10-16T15:49:03;98295.16;;;19.30;77.45
9423;BME280;4750;49.506;10.400;2022-10-16T15:51:47;98287.34;;;19.30;78.15
9423;BME280;4750;49.506;10.400;2022-10-16T15:54:32;98284.88;;;19.15;78.24
9423;BME280;4750;49.506;10.400;2022-10-16T15:57:15;98275.25;;;18.98;78.64
9423;BME280;4750;49.506;10.400;2022-10-16T16:00:00;98293.34;;;19.03;78.98
9423;BME280;4750;49.506;10.400;2022-10-16T16:02:49;98308.63;;;18.98;79.60
9423;BME280;4750;49.506;10.400;2022-10-16T16:05:37;98257.84;;;18.63;79.79
9423;BME280;4750;49.506;10.400;2022-10-16T16:08:21;98271.00;;;18.68;79.76
9423;BME280;4750;49.506;10.400;2022-10-16T16:11:08;98285.19;;;18.78;79.96
9423;BME280;4750;49.506;10.400;2022-10-16T16:13:52;98303.56;;;18.86;80.10
9423;BME280;4750;49.506;10.400;2022-10-16T16:16:38;98276.13;;;18.59;80.00
9423;BME280;4750;49.506;10.400;2022-10-16T16:19:22;98306.94;;;18.63;80.34
9423;BME280;4750;49.506;10.400;2022-10-16T16:22:06;98270.06;;;18.34;80.69
9423;BME280;4750;49.506;10.400;2022-10-16T16:24:50;98302.19;;;18.46;81.15